createdAt,value
2018-10-18T00:01:33.003Z,19.42
2018-10-18T00:04:02.297Z,21.23
2018-10-18T00:06:31.552Z,20.02
2018-10-18T00:09:00.785Z,19.27
2018-10-18T00:11:29.998Z,19.75
2018-10-18T00:13:59.255Z,19.80
2018-10-18T00:16:28.451Z,19.77
2018-10-18T00:18:57.714Z,21.30
2018-10-18T00:21:26.941Z,21.02
2018-10-18T00:23:56.183Z,19.45
2018-10-18T00:26:25.386Z,20.00
2018-10-18T00:28:54.570Z,19.90
2018-10-18T00:31:23.778Z,20.50
2018-10-18T00:33:52.996Z,20.65
2018-10-18T00:36:22.219Z,20.37
2018-10-18T00:38:51.428Z,20.37
2018-10-18T00:41:20.641Z,19.35
2018-10-18T00:43:49.830Z,20.68
2018-10-18T00:46:19.091Z,20.85
2018-10-18T00:48:48.372Z,19.35
2018-10-18T00:51:17.608Z,20.68
2018-10-18T00:53:46.818Z,20.40
2018-10-18T00:56:16.110Z,19.27
2018-10-18T00:58:45.259Z,19.40
2018-10-18T01:01:14.531Z,19.57
2018-10-18T01:03:43.727Z,21.42
2018-10-18T01:06:13.239Z,19.27
2018-10-18T01:08:42.343Z,18.77
2018-10-18T01:11:11.562Z,19.12
2018-10-18T01:13:40.747Z,19.35
2018-10-18T01:16:09.940Z,19.23
2018-10-18T01:18:39.155Z,18.77
2018-10-18T01:21:08.346Z,22.82
2018-10-18T01:23:37.590Z,19.60
2018-10-18T01:26:06.881Z,19.35
2018-10-18T01:28:36.015Z,20.43
2018-10-18T01:31:07.264Z,19.12
2018-10-18T01:33:36.496Z,19.50
2018-10-18T01:36:05.878Z,18.50
2018-10-18T01:38:35.023Z,20.70
2018-10-18T01:41:04.231Z,18.75
2018-10-18T01:43:33.580Z,20.72
2018-10-18T01:46:02.791Z,20.40
2018-10-18T01:48:32.035Z,18.87
2018-10-18T01:51:01.235Z,20.37
2018-10-18T01:53:30.451Z,21.80
2018-10-18T01:55:59.746Z,19.35
2018-10-18T01:58:28.958Z,20.00
2018-10-18T02:00:58.191Z,20.35
2018-10-18T02:03:27.401Z,20.82
2018-10-18T02:05:56.630Z,19.80
2018-10-18T02:08:25.859Z,20.92
2018-10-18T02:10:55.057Z,20.97
2018-10-18T02:13:24.296Z,18.80
2018-10-18T02:15:53.562Z,20.40
2018-10-18T02:18:22.785Z,19.10
2018-10-18T02:20:51.980Z,20.32
2018-10-18T02:23:21.286Z,20.68
2018-10-18T02:25:50.483Z,20.65
2018-10-18T02:28:19.702Z,21.12
2018-10-18T02:30:48.906Z,20.27
2018-10-18T02:33:18.194Z,21.48
2018-10-18T02:35:47.421Z,19.98
2018-10-18T02:38:16.654Z,19.95
2018-10-18T02:40:45.851Z,19.62
2018-10-18T02:43:15.101Z,19.90
2018-10-18T02:45:44.320Z,20.70
2018-10-18T02:48:13.583Z,18.82
2018-10-18T02:50:42.783Z,17.73
2018-10-18T02:53:12.010Z,19.27
2018-10-18T02:55:41.211Z,21.35
2018-10-18T02:58:10.519Z,20.57
2018-10-18T03:00:39.721Z,20.72
2018-10-18T03:03:08.922Z,20.43
2018-10-18T03:05:38.105Z,21.27
2018-10-18T03:08:07.358Z,19.48
2018-10-18T03:10:36.604Z,20.80
2018-10-18T03:13:05.962Z,21.55
2018-10-18T03:15:35.162Z,19.75
2018-10-18T03:18:04.678Z,19.48
2018-10-18T03:20:33.853Z,21.35
2018-10-18T03:23:03.063Z,20.35
2018-10-18T03:25:32.267Z,20.05
2018-10-18T03:28:01.526Z,19.12
2018-10-18T03:30:30.702Z,22.00
2018-10-18T03:32:59.901Z,20.72
2018-10-18T03:35:29.110Z,22.02
2018-10-18T03:37:58.328Z,22.25
2018-10-18T03:40:27.511Z,20.43
2018-10-18T03:42:56.702Z,19.17
2018-10-18T03:45:26.215Z,21.75
2018-10-18T03:47:55.697Z,20.52
2018-10-18T03:50:24.893Z,20.85
2018-10-18T03:52:54.186Z,20.10
2018-10-18T03:55:23.354Z,21.00
2018-10-18T03:57:52.539Z,20.43
2018-10-18T04:00:21.779Z,19.90
2018-10-18T04:02:50.971Z,19.73
2018-10-18T04:05:20.158Z,20.55
2018-10-18T04:07:49.339Z,22.07
2018-10-18T04:10:18.503Z,20.60
2018-10-18T04:12:47.718Z,22.58
2018-10-18T04:15:16.871Z,20.57
2018-10-18T04:17:46.085Z,21.07
2018-10-18T04:20:15.256Z,19.95
2018-10-18T04:22:44.475Z,20.15
2018-10-18T04:25:13.734Z,19.10
2018-10-18T04:27:42.975Z,19.48
2018-10-18T04:30:12.264Z,18.52
2018-10-18T04:32:41.447Z,20.48
2018-10-18T04:35:10.630Z,23.07
2018-10-18T04:37:39.820Z,20.75
2018-10-18T04:40:09.026Z,21.82
2018-10-18T04:42:38.183Z,21.12
2018-10-18T04:45:08.691Z,21.25
2018-10-18T04:47:37.962Z,20.65
2018-10-18T04:50:08.352Z,19.17
2018-10-18T04:52:37.522Z,19.12
2018-10-18T04:55:06.771Z,18.65
2018-10-18T04:57:35.943Z,20.30
2018-10-18T05:00:05.851Z,18.52
2018-10-18T05:02:35.048Z,19.23
2018-10-18T05:05:21.559Z,20.80
2018-10-18T05:07:50.755Z,18.60
2018-10-18T05:10:19.963Z,18.05
2018-10-18T05:12:49.217Z,18.52
2018-10-18T05:15:18.341Z,18.92
2018-10-18T05:17:47.524Z,18.62
2018-10-18T05:20:16.716Z,19.52
2018-10-18T05:22:45.874Z,21.02
2018-10-18T05:25:15.190Z,20.92
2018-10-18T05:27:44.284Z,20.35
2018-10-18T05:30:13.499Z,24.90
2018-10-18T05:32:42.659Z,22.52
2018-10-18T05:35:11.877Z,21.40
2018-10-18T05:37:41.106Z,21.75
2018-10-18T05:40:10.282Z,23.20
2018-10-18T05:42:39.462Z,23.50
2018-10-18T05:45:08.919Z,21.42
2018-10-18T05:47:38.443Z,21.07
2018-10-18T05:50:08.344Z,21.60
2018-10-18T05:52:37.660Z,19.92
2018-10-18T05:55:08.158Z,21.45
2018-10-18T05:57:37.271Z,21.57
2018-10-18T06:00:10.532Z,22.25
2018-10-18T06:02:40.252Z,22.50
2018-10-18T06:05:10.072Z,23.85
2018-10-18T06:07:39.256Z,26.15
2018-10-18T06:10:26.497Z,22.62
2018-10-18T06:12:55.627Z,23.73
2018-10-18T06:15:24.871Z,22.95
2018-10-18T06:17:54.075Z,22.17
2018-10-18T06:20:23.278Z,24.98
2018-10-18T06:22:52.519Z,23.57
2018-10-18T06:25:21.677Z,23.65
2018-10-18T06:27:50.851Z,23.73
2018-10-18T06:30:20.481Z,24.55
2018-10-18T06:32:49.735Z,23.73
2018-10-18T06:35:18.951Z,20.27
2018-10-18T06:37:48.132Z,19.70
2018-10-18T06:40:18.190Z,20.72
2018-10-18T06:42:47.359Z,21.15
2018-10-18T06:45:17.813Z,20.88
2018-10-18T06:47:47.315Z,20.17
2018-10-18T06:50:19.788Z,24.47
2018-10-18T06:52:49.578Z,22.62
2018-10-18T06:55:18.813Z,21.82
2018-10-18T06:57:47.979Z,23.02
2018-10-18T07:00:24.291Z,20.68
2018-10-18T07:02:53.643Z,18.87
2018-10-18T07:05:22.836Z,20.43
2018-10-18T07:07:52.019Z,20.72
2018-10-18T07:10:21.220Z,22.52
2018-10-18T07:12:50.388Z,19.60
2018-10-18T07:15:19.591Z,21.75
2018-10-18T07:17:48.874Z,20.68
2018-10-18T07:20:18.004Z,21.12
2018-10-18T07:22:47.176Z,22.82
2018-10-18T07:25:16.697Z,22.85
2018-10-18T07:27:45.883Z,25.97
2018-10-18T07:30:15.737Z,26.10
2018-10-18T07:32:44.852Z,21.33
2018-10-18T07:35:14.835Z,19.92
2018-10-18T07:37:43.966Z,24.77
2018-10-18T07:40:14.707Z,21.00
2018-10-18T07:42:43.938Z,21.87
2018-10-18T07:45:13.931Z,23.75
2018-10-18T07:47:43.802Z,21.82
2018-10-18T07:50:13.467Z,24.65
2018-10-18T07:52:42.651Z,23.45
2018-10-18T07:55:12.023Z,24.57
2018-10-18T07:57:41.224Z,24.95
2018-10-18T08:00:13.150Z,23.87
2018-10-18T08:02:42.887Z,22.62
2018-10-18T08:05:12.554Z,24.05
2018-10-18T08:07:41.883Z,26.97
2018-10-18T08:10:15.712Z,27.40
2018-10-18T08:12:44.902Z,25.45
2018-10-18T08:15:15.337Z,24.80
2018-10-18T08:17:45.180Z,30.97
2018-10-18T08:20:14.918Z,25.37
2018-10-18T08:22:44.472Z,27.22
2018-10-18T08:25:13.739Z,25.52
2018-10-18T08:27:42.994Z,24.92
2018-10-18T08:30:13.597Z,26.73
2018-10-18T08:32:42.820Z,24.87
2018-10-18T08:35:12.904Z,25.52
2018-10-18T08:37:42.203Z,26.50
2018-10-18T08:40:11.422Z,28.62
2018-10-18T08:42:40.631Z,26.35
2018-10-18T08:45:10.836Z,28.00
2018-10-18T08:47:40.019Z,26.23
2018-10-18T08:50:10.855Z,33.00
2018-10-18T08:52:40.151Z,27.67
2018-10-18T08:55:12.094Z,33.90
2018-10-18T08:57:41.499Z,30.72
2018-10-18T09:00:11.849Z,31.15
2018-10-18T09:02:42.044Z,31.27
2018-10-18T09:05:11.443Z,28.23
2018-10-18T09:07:40.609Z,30.62
2018-10-18T09:10:09.880Z,29.23
2018-10-18T09:12:39.059Z,29.20
2018-10-18T09:15:09.277Z,32.50
2018-10-18T09:17:38.768Z,31.82
2018-10-18T09:20:08.179Z,34.38
2018-10-18T09:22:37.776Z,34.38
2018-10-18T09:25:07.954Z,34.08
2018-10-18T09:27:37.289Z,33.95
2018-10-18T09:30:08.877Z,33.92
2018-10-18T09:32:38.089Z,38.28
2018-10-18T09:35:07.402Z,31.65
2018-10-18T09:37:36.603Z,38.05
2018-10-18T09:40:07.328Z,36.23
2018-10-18T09:42:36.531Z,33.95
2018-10-18T09:45:07.633Z,34.00
2018-10-18T09:47:37.026Z,41.73
2018-10-18T09:50:06.251Z,40.52
2018-10-18T09:52:35.459Z,44.77
2018-10-18T09:55:05.576Z,43.80
2018-10-18T09:57:34.741Z,48.02
2018-10-18T10:00:04.122Z,50.33
2018-10-18T10:02:38.759Z,46.18
2018-10-18T10:05:07.990Z,52.48
2018-10-18T10:07:37.206Z,51.88
2018-10-18T10:10:06.414Z,49.95
2018-10-18T10:12:35.617Z,52.75
2018-10-18T10:15:05.598Z,50.55
2018-10-18T10:17:34.963Z,48.60
2018-10-18T10:20:04.160Z,45.65
2018-10-18T10:22:33.363Z,48.98
2018-10-18T10:25:04.737Z,50.33
2018-10-18T10:27:33.962Z,43.68
2018-10-18T10:30:03.177Z,39.63
2018-10-18T10:32:32.405Z,43.95
2018-10-18T10:35:07.721Z,44.25
2018-10-18T10:37:36.915Z,43.35
2018-10-18T10:40:07.784Z,41.88
2018-10-18T10:42:36.912Z,43.15
2018-10-18T10:45:07.959Z,39.95
2018-10-18T10:47:37.138Z,37.67
2018-10-18T10:50:06.786Z,42.83
2018-10-18T10:52:36.142Z,40.40
2018-10-18T10:55:06.143Z,36.03
2018-10-18T10:57:35.466Z,36.83
2018-10-18T11:00:04.795Z,34.67
2018-10-18T11:02:34.088Z,39.20
2018-10-18T11:05:03.445Z,38.88
2018-10-18T11:07:32.658Z,40.12
2018-10-18T11:10:01.917Z,36.73
2018-10-18T11:12:31.499Z,37.15
2018-10-18T11:15:01.324Z,37.83
2018-10-18T11:17:30.605Z,36.77
2018-10-18T11:19:59.904Z,36.50
2018-10-18T11:22:30.611Z,37.58
2018-10-18T11:24:59.919Z,36.58
2018-10-18T11:27:29.149Z,36.45
2018-10-18T11:29:58.360Z,36.38
2018-10-18T11:32:27.581Z,33.85
2018-10-18T11:34:56.824Z,37.95
2018-10-18T11:37:26.090Z,36.80
2018-10-18T11:39:55.513Z,34.65
2018-10-18T11:42:24.809Z,35.33
2018-10-18T11:44:54.086Z,36.75
2018-10-18T11:47:23.370Z,37.90
2018-10-18T11:49:52.651Z,37.63
2018-10-18T11:52:21.896Z,37.10
2018-10-18T11:54:51.144Z,36.15
2018-10-18T11:57:20.379Z,35.88
2018-10-18T11:59:49.686Z,37.00
2018-10-18T12:02:18.957Z,36.17
2018-10-18T12:04:48.152Z,35.40
2018-10-18T12:07:17.408Z,36.60
2018-10-18T12:09:46.614Z,34.53
2018-10-18T12:12:15.836Z,34.08
2018-10-18T12:14:45.028Z,35.95
2018-10-18T12:17:14.312Z,36.15
2018-10-18T12:19:43.514Z,35.73
2018-10-18T12:22:12.953Z,35.55
2018-10-18T12:24:42.176Z,36.68
2018-10-18T12:27:11.396Z,35.00
2018-10-18T12:29:40.596Z,34.33
2018-10-18T12:32:09.917Z,34.23
2018-10-18T12:34:39.107Z,35.52
2018-10-18T12:37:08.337Z,35.45
2018-10-18T12:39:37.655Z,36.65
2018-10-18T12:42:06.971Z,44.53
2018-10-18T12:44:38.049Z,38.13
2018-10-18T12:47:09.020Z,37.08
2018-10-18T12:49:39.009Z,35.92
2018-10-18T12:52:09.596Z,34.98
2018-10-18T12:54:39.144Z,34.45
2018-10-18T12:57:10.084Z,36.70
2018-10-18T12:59:39.303Z,36.65
2018-10-18T13:02:08.896Z,37.42
2018-10-18T13:04:38.396Z,38.15
2018-10-18T13:07:07.675Z,37.23
2018-10-18T13:09:36.885Z,37.60
2018-10-18T13:12:06.234Z,43.15
2018-10-18T13:14:35.413Z,42.50
2018-10-18T13:17:04.835Z,50.15
2018-10-18T13:19:34.068Z,44.03
2018-10-18T13:22:03.281Z,42.55
2018-10-18T13:24:32.480Z,40.35
2018-10-18T13:27:01.713Z,40.88
2018-10-18T13:29:30.931Z,40.98
2018-10-18T13:32:00.301Z,43.63
2018-10-18T13:34:29.466Z,40.40
2018-10-18T13:36:58.708Z,40.55
2018-10-18T13:39:27.939Z,44.40
2018-10-18T13:41:57.292Z,38.48
2018-10-18T13:44:26.519Z,40.45
2018-10-18T13:46:55.744Z,37.25
2018-10-18T13:49:24.969Z,40.33
2018-10-18T13:51:54.189Z,40.15
2018-10-18T13:54:23.506Z,43.40
2018-10-18T13:56:52.759Z,45.00
2018-10-18T13:59:39.061Z,44.58
2018-10-18T14:02:08.296Z,43.70
2018-10-18T14:04:37.531Z,42.65
2018-10-18T14:07:06.747Z,44.45
2018-10-18T14:09:36.076Z,43.58
2018-10-18T14:12:05.657Z,44.63
2018-10-18T14:14:34.902Z,45.15
2018-10-18T14:17:04.182Z,44.80
2018-10-18T14:19:33.399Z,45.00
2018-10-18T14:22:02.627Z,45.12
2018-10-18T14:24:31.925Z,44.10
2018-10-18T14:27:01.129Z,43.60
2018-10-18T14:29:30.366Z,49.95
2018-10-18T14:31:59.586Z,53.83
2018-10-18T14:34:28.842Z,126.25
2018-10-18T14:36:58.068Z,131.07
2018-10-18T14:39:27.318Z,135.30
2018-10-18T14:41:56.550Z,101.87
2018-10-18T14:44:25.844Z,65.47
2018-10-18T14:46:55.152Z,51.28
2018-10-18T14:49:24.391Z,50.75
2018-10-18T14:51:53.661Z,45.48
2018-10-18T14:54:23.665Z,49.48
2018-10-18T14:56:52.905Z,47.17
2018-10-18T14:59:28.477Z,45.70
2018-10-18T15:01:57.772Z,48.95
2018-10-18T15:04:27.066Z,48.52
2018-10-18T15:06:56.349Z,51.65
2018-10-18T15:09:25.630Z,52.80
2018-10-18T15:11:54.842Z,53.23
2018-10-18T15:14:24.068Z,55.28
2018-10-18T15:16:53.302Z,58.52
2018-10-18T15:19:22.595Z,61.88
2018-10-18T15:21:51.825Z,59.18
2018-10-18T15:24:21.090Z,59.18
2018-10-18T15:26:50.333Z,67.72
2018-10-18T15:29:19.680Z,66.47
2018-10-18T15:31:48.935Z,64.22
2018-10-18T15:34:18.175Z,68.28
2018-10-18T15:36:47.595Z,70.30
2018-10-18T15:39:17.055Z,73.97
2018-10-18T15:41:46.170Z,73.07
2018-10-18T15:44:15.515Z,75.32
2018-10-18T15:46:44.693Z,76.70
2018-10-18T15:49:13.909Z,79.20
2018-10-18T15:51:43.601Z,77.12
2018-10-18T15:54:12.910Z,84.28
2018-10-18T15:56:42.104Z,83.42
2018-10-18T15:59:11.360Z,81.90
2018-10-18T16:01:40.609Z,80.67
2018-10-18T16:04:09.846Z,90.45
2018-10-18T16:06:39.074Z,83.40
2018-10-18T16:09:11.314Z,91.37
2018-10-18T16:11:40.642Z,78.83
2018-10-18T16:14:09.896Z,89.80
2018-10-18T16:16:39.118Z,86.20
2018-10-18T16:19:08.377Z,77.58
2018-10-18T16:21:37.581Z,76.72
2018-10-18T16:24:06.988Z,81.50
2018-10-18T16:26:36.226Z,87.70
2018-10-18T16:29:05.676Z,89.05
2018-10-18T16:31:34.858Z,85.57
2018-10-18T16:34:04.085Z,93.75
2018-10-18T16:36:33.302Z,97.53
2018-10-18T16:39:02.615Z,93.65
2018-10-18T16:41:31.987Z,96.42
2018-10-18T16:44:01.163Z,91.08
2018-10-18T16:46:30.420Z,86.22
2018-10-18T16:48:59.648Z,85.28
2018-10-18T16:51:28.866Z,90.38
2018-10-18T16:54:08.444Z,96.55
2018-10-18T16:56:37.604Z,95.17
2018-10-18T16:59:06.850Z,94.25
2018-10-18T17:01:36.087Z,87.37
2018-10-18T17:04:05.644Z,90.72
2018-10-18T17:06:34.807Z,94.62
2018-10-18T17:09:04.997Z,90.42
2018-10-18T17:11:34.308Z,96.15
2018-10-18T17:14:03.556Z,92.62
2018-10-18T17:16:32.728Z,84.03
2018-10-18T17:19:01.949Z,85.00
2018-10-18T17:21:31.157Z,75.75
2018-10-18T17:24:00.466Z,81.35
2018-10-18T17:26:29.671Z,72.95
2018-10-18T17:28:58.917Z,71.97
2018-10-18T17:31:28.152Z,70.65
2018-10-18T17:33:57.614Z,71.50
2018-10-18T17:36:26.957Z,76.77
2018-10-18T17:38:57.032Z,73.15
2018-10-18T17:41:26.239Z,76.90
2018-10-18T17:43:55.523Z,76.07
2018-10-18T17:46:24.727Z,74.12
2018-10-18T17:48:53.922Z,72.60
2018-10-18T17:51:23.186Z,73.42
2018-10-18T17:53:52.389Z,78.00
2018-10-18T17:56:21.657Z,67.55
2018-10-18T17:58:50.832Z,68.67
2018-10-18T18:01:20.243Z,77.72
2018-10-18T18:03:49.424Z,61.15
2018-10-18T18:06:18.894Z,60.20
2018-10-18T18:08:47.909Z,62.60
2018-10-18T18:11:17.150Z,61.95
2018-10-18T18:13:47.439Z,60.95
2018-10-18T18:16:16.673Z,59.95
2018-10-18T18:18:45.873Z,57.60
2018-10-18T18:21:15.104Z,63.17
2018-10-18T18:23:44.322Z,73.15
2018-10-18T18:26:13.563Z,64.17
2018-10-18T18:28:42.760Z,67.67
2018-10-18T18:31:12.205Z,61.75
2018-10-18T18:33:41.535Z,68.45
2018-10-18T18:36:10.760Z,70.00
2018-10-18T18:38:39.961Z,67.72
2018-10-18T18:41:09.173Z,75.85
2018-10-18T18:43:38.409Z,69.70
2018-10-18T18:46:07.657Z,72.27
2018-10-18T18:48:37.131Z,68.07
2018-10-18T18:51:06.499Z,76.25
2018-10-18T18:53:35.804Z,74.77
2018-10-18T18:56:05.269Z,71.55
2018-10-18T18:58:34.463Z,75.90
2018-10-18T19:01:03.696Z,79.07
2018-10-18T19:03:32.917Z,74.37
2018-10-18T19:06:02.154Z,69.03
2018-10-18T19:08:31.360Z,84.22
2018-10-18T19:11:00.657Z,71.33
2018-10-18T19:13:29.940Z,80.17
2018-10-18T19:15:59.106Z,76.65
2018-10-18T19:18:28.434Z,76.80
2018-10-18T19:20:57.694Z,73.65
2018-10-18T19:23:26.895Z,77.72
2018-10-18T19:25:56.132Z,74.50
2018-10-18T19:28:25.376Z,72.08
2018-10-18T19:30:54.584Z,71.62
2018-10-18T19:33:23.816Z,78.45
2018-10-18T19:35:53.047Z,74.07
2018-10-18T19:38:22.296Z,76.53
2018-10-18T19:40:51.504Z,66.40
2018-10-18T19:43:20.712Z,75.15
2018-10-18T19:45:50.146Z,74.55
2018-10-18T19:48:19.351Z,69.03
2018-10-18T19:50:48.571Z,66.77
2018-10-18T19:53:17.769Z,63.17
2018-10-18T19:55:46.985Z,67.87
2018-10-18T19:58:16.339Z,63.65
2018-10-18T20:00:45.393Z,69.72
2018-10-18T20:03:14.589Z,64.30
2018-10-18T20:05:43.831Z,64.90
2018-10-18T20:08:13.470Z,62.95
2018-10-18T20:10:42.705Z,61.63
2018-10-18T20:13:11.889Z,54.10
2018-10-18T20:15:42.500Z,60.08
2018-10-18T20:18:11.881Z,56.68
2018-10-18T20:20:40.948Z,55.35
2018-10-18T20:23:10.150Z,59.03
2018-10-18T20:25:39.458Z,61.45
2018-10-18T20:28:08.608Z,58.00
2018-10-18T20:30:37.816Z,56.37
2018-10-18T20:33:07.067Z,57.27
2018-10-18T20:35:36.299Z,61.00
2018-10-18T20:38:05.478Z,57.65
2018-10-18T20:40:34.701Z,57.80
2018-10-18T20:43:03.884Z,54.15
2018-10-18T20:45:37.549Z,54.95
2018-10-18T20:48:06.946Z,55.67
2018-10-18T20:50:35.982Z,54.63
2018-10-18T20:53:05.274Z,61.70
2018-10-18T20:55:34.473Z,66.50
2018-10-18T20:58:03.672Z,54.20
2018-10-18T21:00:33.005Z,56.55
2018-10-18T21:03:02.215Z,51.88
2018-10-18T21:05:31.432Z,55.65
2018-10-18T21:08:00.641Z,51.20
2018-10-18T21:10:29.865Z,53.45
2018-10-18T21:12:59.120Z,52.67
2018-10-18T21:15:28.333Z,52.05
2018-10-18T21:17:57.569Z,53.35
2018-10-18T21:20:26.797Z,49.85
2018-10-18T21:22:56.058Z,50.10
2018-10-18T21:25:25.248Z,46.50
2018-10-18T21:27:54.549Z,48.20
2018-10-18T21:30:23.691Z,48.73
2018-10-18T21:32:52.919Z,50.12
2018-10-18T21:35:22.115Z,50.63
2018-10-18T21:37:51.341Z,52.55
2018-10-18T21:40:20.540Z,48.75
2018-10-18T21:42:49.769Z,45.20
2018-10-18T21:45:19.167Z,52.00
2018-10-18T21:47:48.413Z,50.90
2018-10-18T21:50:17.660Z,46.60
2018-10-18T21:52:46.946Z,46.28
2018-10-18T21:55:16.177Z,45.58
2018-10-18T21:57:45.444Z,48.13
2018-10-18T22:00:15.897Z,43.20
2018-10-18T22:02:46.106Z,44.48
2018-10-18T22:05:15.926Z,39.83
2018-10-18T22:07:45.148Z,41.18
2018-10-18T22:10:14.640Z,39.23
2018-10-18T22:12:43.863Z,39.98
2018-10-18T22:15:13.135Z,38.02
2018-10-18T22:17:42.365Z,38.67
2018-10-18T22:20:11.575Z,40.95
2018-10-18T22:22:40.793Z,39.78
2018-10-18T22:25:10.220Z,39.08
2018-10-18T22:27:39.474Z,33.05
2018-10-18T22:30:09.128Z,36.53
2018-10-18T22:32:38.545Z,32.08
2018-10-18T22:35:07.787Z,35.45
2018-10-18T22:37:37.000Z,36.98
2018-10-18T22:40:07.356Z,36.75
2018-10-18T22:42:36.602Z,39.63
2018-10-18T22:45:07.377Z,40.03
2018-10-18T22:47:36.525Z,40.35
2018-10-18T22:50:05.726Z,36.10
2018-10-18T22:52:34.958Z,41.33
2018-10-18T22:55:04.160Z,38.88
2018-10-18T22:57:33.394Z,36.13
2018-10-18T23:00:02.601Z,35.17
2018-10-18T23:02:31.845Z,39.35
2018-10-18T23:05:01.070Z,44.15
2018-10-18T23:07:30.286Z,49.50
2018-10-18T23:09:59.562Z,42.30
2018-10-18T23:12:28.793Z,39.53
2018-10-18T23:14:58.035Z,48.05
2018-10-18T23:17:27.252Z,31.73
2018-10-18T23:19:56.436Z,34.48
2018-10-18T23:22:25.666Z,32.10
2018-10-18T23:24:54.861Z,28.25
2018-10-18T23:27:23.234Z,30.30
2018-10-18T23:29:52.444Z,28.00
2018-10-18T23:32:21.680Z,30.02
2018-10-18T23:34:50.887Z,25.60
2018-10-18T23:37:20.114Z,26.23
2018-10-18T23:39:49.321Z,28.02
2018-10-18T23:42:18.638Z,27.17
2018-10-18T23:44:47.848Z,23.90
2018-10-18T23:47:17.106Z,27.00
2018-10-18T23:49:46.317Z,27.10
2018-10-18T23:52:15.545Z,28.40
2018-10-18T23:54:44.766Z,23.87
2018-10-18T23:57:14.047Z,25.70
2018-10-18T23:59:43.207Z,24.47
